Time;durP1;ratioP1;P1;durP2;ratioP2;P2;SDS_P1;SDS_P2;PMS_P1;PMS_P2;Temp;Humidity;BMP_temperature;BMP_pressure;BME280_temperature;BME280_humidity;BME280_pressure;Samples;Min_cycle;Max_cycle;Signal;HPM_P1;HPM_P2
2022/04/30 00:01:36;;;;;;;;;;;;;;;10.74;66.83;101011.16;5056931;28;20342;-65
2022/04/30 00:04:23;;;;;;;;;;;;;;;10.75;66.85;101012.94;5056701;28;19928;-65
2022/04/30 00:07:28;;;;;;;;;;;;;;;10.74;67.02;101011.16;5057506;28;19967;-64
2022/04/30 00:10:17;;;;;;;;;;;;;;;10.74;66.91;101000.81;5057609;28;19928;-65
2022/04/30 00:13:01;;;;;;;;;;;;;;;10.72;67.20;100997.28;5056740;28;19974;-68
2022/04/30 00:15:47;;;;;;;;;;;;;;;10.71;67.04;101001.59;5056865;28;20416;-65
2022/04/30 00:18:36;;;;;;;;;;;;;;;10.71;67.17;100995.50;5057099;28;20338;-64
2022/04/30 00:21:22;;;;;;;;;;;;;;;10.69;67.11;101004.97;5056134;28;19928;-65
2022/04/30 00:24:14;;;;;;;;;;;;;;;10.68;66.83;100998.00;5056931;28;19928;-65
2022/04/30 00:27:01;;;;;;;;;;;;;;;10.66;67.34;101006.66;5055758;28;19930;-64
2022/04/30 00:29:50;;;;;;;;;;;;;;;10.68;66.81;101004.09;5055908;28;20006;-65
2022/04/30 00:32:34;;;;;;;;;;;;;;;10.67;66.86;101004.91;5056733;28;20300;-64
2022/04/30 00:35:24;;;;;;;;;;;;;;;10.65;66.76;101010.06;5057402;28;19966;-65
2022/04/30 00:38:08;;;;;;;;;;;;;;;10.64;66.75;101013.50;5056311;28;19967;-65
2022/04/30 00:40:55;;;;;;;;;;;;;;;10.63;67.13;101008.25;5056888;28;19974;-64
2022/04/30 00:43:49;;;;;;;;;;;;;;;10.63;66.81;101010.84;5055800;28;20024;-65
2022/04/30 00:46:33;;;;;;;;;;;;;;;10.62;67.26;101009.97;5055876;28;19982;-64
2022/04/30 00:49:20;;;;;;;;;;;;;;;10.62;66.78;101009.97;5056480;28;19974;-65
2022/04/30 00:52:30;;;;;;;;;;;;;;;10.62;66.73;101001.28;5056872;28;19955;-65
2022/04/30 00:55:21;;;;;;;;;;;;;;;10.61;66.96;101013.41;5056172;28;20062;-66
2022/04/30 00:58:08;;;;;;;;;;;;;;;10.60;66.93;101003.84;5055859;28;19927;-65
2022/04/30 01:00:52;;;;;;;;;;;;;;;10.60;66.78;101013.31;5055461;28;19928;-65
2022/04/30 01:03:36;;;;;;;;;;;;;;;10.57;66.71;101002.88;5056781;28;19928;-65
2022/04/30 01:06:37;;;;;;;;;;;;;;;10.57;67.12;101001.16;5056277;28;19927;-65
2022/04/30 01:09:28;;;;;;;;;;;;;;;10.58;66.83;101008.09;5055053;28;19944;-65
2022/04/30 01:12:17;;;;;;;;;;;;;;;10.57;66.89;101001.16;5055718;28;20437;-65
2022/04/30 01:15:07;;;;;;;;;;;;;;;10.56;66.73;101001.13;5055048;28;19928;-65
2022/04/30 01:17:56;;;;;;;;;;;;;;;10.56;66.75;101002.00;5055024;28;19928;-66
2022/04/30 01:20:42;;;;;;;;;;;;;;;10.54;66.99;100998.47;5056396;28;19950;-65
2022/04/30 01:23:27;;;;;;;;;;;;;;;10.54;66.75;101008.84;5055915;28;20310;-65
2022/04/30 01:26:14;;;;;;;;;;;;;;;10.53;66.90;101001.88;5055752;28;20319;-65
2022/04/30 01:29:04;;;;;;;;;;;;;;;10.54;66.88;101000.19;5055323;28;20331;-65
2022/04/30 01:38:02;;;;;;;;;;;;;;;10.52;66.81;100992.34;5055653;28;19967;-65
2022/04/30 01:40:51;;;;;;;;;;;;;;;10.51;66.77;100988.88;5054750;28;19949;-65
2022/04/30 01:43:35;;;;;;;;;;;;;;;10.51;67.07;100990.59;5055556;28;19928;-65
2022/04/30 01:46:19;;;;;;;;;;;;;;;10.50;67.09;100981.94;5055452;28;19943;-65
2022/04/30 01:49:06;;;;;;;;;;;;;;;10.49;67.12;100979.31;5055528;28;20437;-64
2022/04/30 01:51:51;;;;;;;;;;;;;;;10.49;66.81;100987.09;5054845;28;19966;-65
2022/04/30 01:54:40;;;;;;;;;;;;;;;10.49;67.12;100977.59;5055183;28;20292;-65
2022/04/30 01:57:28;;;;;;;;;;;;;;;10.47;67.00;100980.97;5054191;28;20016;-65
2022/04/30 02:00:20;;;;;;;;;;;;;;;10.47;66.71;100988.75;5054476;28;19928;-65
2022/04/30 02:03:08;;;;;;;;;;;;;;;10.48;67.00;100990.50;5055203;28;19928;-66
2022/04/30 02:06:00;;;;;;;;;;;;;;;10.47;67.08;100984.44;5054547;28;20008;-65
2022/04/30 02:08:47;;;;;;;;;;;;;;;10.47;66.98;100979.25;5054116;28;19971;-65
2022/04/30 02:11:39;;;;;;;;;;;;;;;10.46;66.99;100979.22;5054154;28;20399;-65
2022/04/30 02:14:30;;;;;;;;;;;;;;;10.45;67.15;100978.31;5053990;28;19931;-65
2022/04/30 02:17:15;;;;;;;;;;;;;;;10.47;67.07;100970.63;5054261;28;19967;-65
2022/04/30 02:23:11;;;;;;;;;;;;;;;10.46;66.97;100976.63;5055082;28;19947;-65
2022/04/30 02:26:04;;;;;;;;;;;;;;;10.46;66.74;100968.84;5054838;28;19928;-65
2022/04/30 02:28:55;;;;;;;;;;;;;;;10.45;66.82;100972.28;5054120;28;19928;-65
2022/04/30 02:31:39;;;;;;;;;;;;;;;10.44;66.71;100973.09;5053657;28;20318;-65
2022/04/30 02:34:28;;;;;;;;;;;;;;;10.43;66.88;100979.13;5054410;28;20018;-65
2022/04/30 02:37:18;;;;;;;;;;;;;;;10.44;66.84;100978.28;5053697;28;20043;-65
2022/04/30 02:40:05;;;;;;;;;;;;;;;10.42;67.23;100977.34;5053495;28;20403;-65
2022/04/30 02:42:52;;;;;;;;;;;;;;;10.40;66.90;100974.72;5054175;28;20342;-65
2022/04/30 02:45:42;;;;;;;;;;;;;;;10.40;66.79;100963.47;5053351;28;19947;-65
2022/04/30 02:48:32;;;;;;;;;;;;;;;10.36;66.78;100967.66;5053367;28;19928;-65
2022/04/30 02:51:22;;;;;;;;;;;;;;;10.38;67.20;100962.50;5053617;28;19947;-65
2022/04/30 02:54:13;;;;;;;;;;;;;;;10.38;67.13;100962.50;5054680;28;19927;-65
2022/04/30 02:57:01;;;;;;;;;;;;;;;10.35;66.96;100960.69;5053375;28;19927;-65
2022/04/30 02:59:53;;;;;;;;;;;;;;;10.33;66.96;100958.06;5053231;28;20295;-65
2022/04/30 03:02:39;;;;;;;;;;;;;;;10.35;66.96;100955.53;5052966;28;19928;-65
2022/04/30 03:05:28;;;;;;;;;;;;;;;10.33;67.13;100960.66;5054104;28;19928;-65
2022/04/30 03:08:22;;;;;;;;;;;;;;;10.32;66.95;100958.91;5053219;28;19931;-65
2022/04/30 03:11:07;;;;;;;;;;;;;;;10.33;66.95;100952.00;5053222;28;19974;-65
2022/04/30 03:13:53;;;;;;;;;;;;;;;10.31;66.76;100959.72;5054157;28;20295;-65
2022/04/30 03:22:48;;;;;;;;;;;;;;;10.28;67.22;100964.81;5053882;28;19928;-65
2022/04/30 03:25:38;;;;;;;;;;;;;;;10.29;67.20;100963.97;5053443;28;19939;-64
2022/04/30 03:28:27;;;;;;;;;;;;;;;10.29;67.25;100963.09;5053126;28;20015;-65
2022/04/30 03:31:11;;;;;;;;;;;;;;;10.27;66.95;100965.63;5052798;28;19968;-64
2022/04/30 03:33:56;;;;;;;;;;;;;;;10.28;67.16;100967.41;5053838;28;19983;-65
2022/04/30 03:36:40;;;;;;;;;;;;;;;10.27;67.23;100965.63;5053506;28;19927;-65
2022/04/30 03:39:29;;;;;;;;;;;;;;;10.27;66.77;100957.88;5053078;28;20402;-65
2022/04/30 03:42:13;;;;;;;;;;;;;;;10.27;67.15;100963.03;5054055;28;19978;-65
2022/04/30 03:45:01;;;;;;;;;;;;;;;10.27;67.16;100964.78;5053654;28;19966;-65
2022/04/30 03:47:53;;;;;;;;;;;;;;;10.25;66.97;100964.72;5052775;28;19928;-65
2022/04/30 03:50:42;;;;;;;;;;;;;;;10.25;67.00;100963.84;5052512;28;19974;-65
2022/04/30 03:53:35;;;;;;;;;;;;;;;10.24;66.87;100965.53;5052665;28;19928;-65
2022/04/30 03:56:25;;;;;;;;;;;;;;;10.21;67.30;100968.03;5052921;28;19991;-65
2022/04/30 03:59:15;;;;;;;;;;;;;;;10.19;67.31;100957.63;5052956;28;19948;-65
2022/04/30 04:02:01;;;;;;;;;;;;;;;10.17;67.11;100966.19;5052104;28;19928;-65
2022/04/30 04:04:47;;;;;;;;;;;;;;;10.18;67.09;100965.34;5052930;28;19935;-65
2022/04/30 04:07:37;;;;;;;;;;;;;;;10.16;67.11;100967.00;5054054;28;19928;-65
2022/04/30 04:10:29;;;;;;;;;;;;;;;10.16;67.21;100970.47;5052645;28;19971;-64
2022/04/30 04:19:26;;;;;;;;;;;;;;;10.16;67.29;100961.84;5053023;28;20319;-65
2022/04/30 04:22:13;;;;;;;;;;;;;;;10.14;67.19;100966.06;5052681;28;19970;-65
2022/04/30 04:28:03;;;;;;;;;;;;;;;10.13;67.33;100974.69;5052935;28;19931;-65
2022/04/30 04:30:46;;;;;;;;;;;;;;;10.14;66.93;100977.31;5053628;28;19986;-65
2022/04/30 04:33:33;;;;;;;;;;;;;;;10.12;67.25;100975.50;5057070;28;19928;-65
2022/04/30 04:36:23;;;;;;;;;;;;;;;10.11;66.94;100973.75;5055840;28;20394;-65
2022/04/30 04:39:12;;;;;;;;;;;;;;;10.12;66.97;100980.69;5055919;28;19948;-64
2022/04/30 04:42:02;;;;;;;;;;;;;;;10.11;67.18;100981.50;5056281;28;20456;-65
2022/04/30 04:44:52;;;;;;;;;;;;;;;10.12;67.12;100978.97;5056227;28;20012;-65
2022/04/30 04:47:41;;;;;;;;;;;;;;;10.11;67.04;100981.50;5055823;28;19943;-65
2022/04/30 04:50:25;;;;;;;;;;;;;;;10.11;67.25;100991.88;5055943;28;19928;-64
2022/04/30 04:53:08;;;;;;;;;;;;;;;10.11;66.78;100991.88;5057025;28;19928;-65
2022/04/30 04:56:03;;;;;;;;;;;;;;;10.11;66.73;100992.78;5056695;28;19974;-65
2022/04/30 04:58:47;;;;;;;;;;;;;;;10.12;67.17;101001.41;5056133;28;19951;-65
2022/04/30 05:01:35;;;;;;;;;;;;;;;10.13;66.84;101000.56;5055976;28;20403;-67
2022/04/30 05:04:27;;;;;;;;;;;;;;;10.13;67.17;101011.81;5055750;28;19965;-65
2022/04/30 05:07:20;;;;;;;;;;;;;;;10.14;67.17;101002.34;5055197;28;20295;-64
2022/04/30 05:10:10;;;;;;;;;;;;;;;10.13;67.07;101005.75;5055913;28;19928;-65
2022/04/30 05:12:57;;;;;;;;;;;;;;;10.14;67.03;101012.72;5055068;28;20356;-65
2022/04/30 05:15:41;;;;;;;;;;;;;;;10.12;66.87;101009.19;5055412;28;19982;-65
2022/04/30 05:18:28;;;;;;;;;;;;;;;10.10;66.94;101016.00;5055791;28;19928;-65
2022/04/30 05:21:17;;;;;;;;;;;;;;;10.07;67.13;101006.44;5055875;28;19955;-65
2022/04/30 05:24:01;;;;;;;;;;;;;;;10.06;67.14;101015.03;5055100;28;20428;-65
2022/04/30 05:26:47;;;;;;;;;;;;;;;10.05;67.05;101018.44;5056114;28;19943;-65
2022/04/30 05:29:35;;;;;;;;;;;;;;;10.04;66.91;101014.97;5056109;28;20010;-65
2022/04/30 05:32:28;;;;;;;;;;;;;;;10.03;67.10;101014.94;5054656;28;19928;-65
2022/04/30 05:35:12;;;;;;;;;;;;;;;10.03;66.81;101009.75;5055754;28;19928;-65
2022/04/30 05:37:56;;;;;;;;;;;;;;;10.00;67.26;101014.81;5055581;28;19974;-64
2022/04/30 05:40:46;;;;;;;;;;;;;;;9.98;67.18;101016.47;5055829;28;20343;-65
2022/04/30 05:43:33;;;;;;;;;;;;;;;9.98;67.29;101022.56;5053750;28;19927;-65
2022/04/30 05:46:25;;;;;;;;;;;;;;;9.99;67.07;101018.25;5054751;28;19928;-64
2022/04/30 05:49:10;;;;;;;;;;;;;;;9.98;67.29;101017.38;5055517;28;19963;-64
2022/04/30 05:51:59;;;;;;;;;;;;;;;9.98;67.32;101021.66;5055393;28;20003;-65
2022/04/30 05:54:49;;;;;;;;;;;;;;;9.99;67.32;101018.25;5054722;28;20312;-65
2022/04/30 05:57:36;;;;;;;;;;;;;;;9.96;67.47;101024.19;5054714;28;19974;-64
2022/04/30 06:00:26;;;;;;;;;;;;;;;9.94;67.30;101023.25;5054310;28;19927;-65
2022/04/30 06:03:12;;;;;;;;;;;;;;;9.97;67.10;101018.19;5054621;28;19962;-64
2022/04/30 06:05:59;;;;;;;;;;;;;;;9.94;67.15;101017.22;5054493;28;19996;-64
2022/04/30 06:08:48;;;;;;;;;;;;;;;9.94;67.39;101025.84;5054823;28;19981;-64
2022/04/30 06:11:32;;;;;;;;;;;;;;;9.94;67.36;101025.00;5055105;28;19928;-64
2022/04/30 06:14:16;;;;;;;;;;;;;;;9.95;67.05;101026.75;5055219;28;19928;-64
2022/04/30 06:17:08;;;;;;;;;;;;;;;9.90;67.19;101030.06;5054972;28;20024;-64
2022/04/30 06:20:01;;;;;;;;;;;;;;;9.90;67.39;101030.06;5054077;28;19928;-64
2022/04/30 06:22:48;;;;;;;;;;;;;;;9.90;67.17;101034.34;5053882;28;19927;-65
2022/04/30 06:25:38;;;;;;;;;;;;;;;9.89;67.24;101033.47;5053953;28;19928;-64
2022/04/30 06:28:31;;;;;;;;;;;;;;;9.89;67.13;101033.47;5054742;28;19928;-65
2022/04/30 06:31:24;;;;;;;;;;;;;;;9.90;67.51;101034.34;5054836;28;20330;-64
2022/04/30 06:34:14;;;;;;;;;;;;;;;9.90;67.40;101031.75;5053833;28;19928;-64
2022/04/30 06:37:01;;;;;;;;;;;;;;;9.89;67.26;101035.16;5054972;28;20403;-65
2022/04/30 06:39:48;;;;;;;;;;;;;;;9.90;67.49;101039.50;5053646;28;20387;-64
2022/04/30 06:42:40;;;;;;;;;;;;;;;9.90;67.53;101048.19;5054591;28;19970;-65
2022/04/30 06:45:32;;;;;;;;;;;;;;;9.90;67.22;101040.41;5053595;28;20367;-65
2022/04/30 06:48:21;;;;;;;;;;;;;;;9.90;67.58;101043.00;5053807;28;20331;-66
2022/04/30 06:51:13;;;;;;;;;;;;;;;9.87;67.25;101040.31;5054683;28;19978;-64
2022/04/30 06:57:11;;;;;;;;;;;;;;;9.88;67.56;101049.84;5054566;28;20395;-65
2022/04/30 06:59:57;;;;;;;;;;;;;;;9.86;67.28;101050.63;5054153;28;20399;-64
2022/04/30 07:02:47;;;;;;;;;;;;;;;9.88;67.56;101051.56;5053204;28;19932;-65
2022/04/30 07:05:31;;;;;;;;;;;;;;;9.86;67.57;101053.22;5053359;28;20406;-64
2022/04/30 07:08:21;;;;;;;;;;;;;;;9.86;67.50;101056.66;5053873;28;19928;-65
2022/04/30 07:11:08;;;;;;;;;;;;;;;9.86;67.47;101055.78;5053968;28;19982;-66
2022/04/30 07:13:59;;;;;;;;;;;;;;;9.86;67.28;101046.31;5053288;28;19927;-64
2022/04/30 07:16:48;;;;;;;;;;;;;;;9.84;67.31;101052.25;5053345;28;20422;-64
2022/04/30 07:19:38;;;;;;;;;;;;;;;9.83;67.52;101053.09;5054023;28;19944;-64
2022/04/30 07:22:28;;;;;;;;;;;;;;;9.83;67.58;101053.97;5053433;28;19928;-65
2022/04/30 07:25:20;;;;;;;;;;;;;;;9.82;67.59;101057.38;5052919;28;19927;-65
2022/04/30 07:28:12;;;;;;;;;;;;;;;9.83;67.55;101055.69;5052755;28;20016;-65
2022/04/30 07:31:00;;;;;;;;;;;;;;;9.84;67.15;101065.22;5052685;28;19955;-64
2022/04/30 07:33:55;;;;;;;;;;;;;;;9.83;67.31;101058.28;5053251;28;20330;-65
2022/04/30 07:36:45;;;;;;;;;;;;;;;9.86;67.54;101060.97;5053201;28;19990;-64
2022/04/30 07:39:34;;;;;;;;;;;;;;;9.83;67.26;101055.69;5052936;28;20299;-65
2022/04/30 07:42:26;;;;;;;;;;;;;;;9.83;67.44;101053.97;5053211;28;20272;-65
2022/04/30 07:45:16;;;;;;;;;;;;;;;9.85;67.08;101059.22;5052584;28;19975;-64
2022/04/30 07:48:03;;;;;;;;;;;;;;;9.83;67.56;101056.53;5052701;28;19974;-64
2022/04/30 07:50:52;;;;;;;;;;;;;;;9.87;67.14;101060.16;5052988;28;19928;-65
2022/04/30 07:53:42;;;;;;;;;;;;;;;9.84;67.47;101063.50;5052681;28;19951;-65
2022/04/30 07:56:26;;;;;;;;;;;;;;;9.85;67.15;101065.25;5052746;28;19975;-65
2022/04/30 07:59:21;;;;;;;;;;;;;;;9.84;67.15;101060.03;5053474;28;19927;-65
2022/04/30 08:02:13;;;;;;;;;;;;;;;9.82;67.32;101065.13;5052388;28;19928;-65
2022/04/30 08:05:03;;;;;;;;;;;;;;;9.81;67.30;101060.78;5053083;28;19928;-65
2022/04/30 08:07:56;;;;;;;;;;;;;;;9.83;67.15;101061.72;5058369;28;20399;-65
2022/04/30 08:10:45;;;;;;;;;;;;;;;9.81;67.12;101058.19;5056963;28;19991;-64
2022/04/30 08:13:32;;;;;;;;;;;;;;;9.83;67.20;101063.44;5056959;28;19927;-66
2022/04/30 08:16:27;;;;;;;;;;;;;;;9.85;67.38;101062.66;5056774;28;19978;-64
2022/04/30 08:19:11;;;;;;;;;;;;;;;9.88;67.38;101065.38;5056447;28;20295;-64
2022/04/30 08:22:01;;;;;;;;;;;;;;;9.88;67.38;101059.31;5057759;28;19928;-65
2022/04/30 08:24:53;;;;;;;;;;;;;;;9.86;67.21;101061.84;5056571;28;19988;-64
2022/04/30 08:27:40;;;;;;;;;;;;;;;9.88;67.15;101067.09;5055970;28;19966;-65
2022/04/30 08:30:24;;;;;;;;;;;;;;;9.87;67.22;101065.31;5057457;28;19927;-65
2022/04/30 08:33:14;;;;;;;;;;;;;;;9.85;66.90;101062.66;5056392;28;19947;-65
2022/04/30 08:36:04;;;;;;;;;;;;;;;9.86;66.90;101068.75;5056269;28;20279;-65
2022/04/30 08:38:50;;;;;;;;;;;;;;;9.86;67.14;101064.44;5056034;28;20015;-65
2022/04/30 08:41:41;;;;;;;;;;;;;;;9.86;66.79;101067.03;5055845;28;19928;-65
2022/04/30 08:44:25;;;;;;;;;;;;;;;9.86;66.88;101058.38;5055995;28;19955;-65
2022/04/30 08:47:15;;;;;;;;;;;;;;;9.85;67.27;101056.63;5055379;28;19974;-65
2022/04/30 08:50:06;;;;;;;;;;;;;;;9.85;66.84;101056.63;5056160;28;20450;-65
2022/04/30 08:52:53;;;;;;;;;;;;;;;9.85;67.18;101057.50;5056835;28;19927;-65
2022/04/30 08:55:40;;;;;;;;;;;;;;;9.86;66.84;101058.38;5056084;28;19971;-65
2022/04/30 08:58:29;;;;;;;;;;;;;;;9.86;66.99;101059.25;5055913;28;19932;-65
2022/04/30 09:01:19;;;;;;;;;;;;;;;9.86;66.79;101061.84;5055857;28;20318;-65
2022/04/30 09:04:03;;;;;;;;;;;;;;;9.86;66.33;101054.06;5055441;28;19927;-66
2022/04/30 09:06:50;;;;;;;;;;;;;;;9.87;66.73;101053.25;5055949;28;19927;-65
2022/04/30 09:09:40;;;;;;;;;;;;;;;9.87;66.60;101044.63;5055510;28;19927;-64
2022/04/30 09:12:26;;;;;;;;;;;;;;;9.88;67.04;101036.88;5056139;28;19975;-67
2022/04/30 09:15:14;;;;;;;;;;;;;;;9.90;66.85;101035.22;5055749;28;19966;-64
2022/04/30 09:17:58;;;;;;;;;;;;;;;9.90;66.57;101026.56;5054888;28;19927;-65
2022/04/30 09:20:49;;;;;;;;;;;;;;;9.94;66.78;101032.75;5055625;28;19942;-64
2022/04/30 09:23:38;;;;;;;;;;;;;;;9.96;66.99;101026.78;5055696;28;19974;-65
2022/04/30 09:26:23;;;;;;;;;;;;;;;9.98;66.83;101026.84;5056292;28;19928;-65
2022/04/30 09:29:20;;;;;;;;;;;;;;;9.98;66.88;101022.56;5056426;28;19927;-65
2022/04/30 09:32:17;;;;;;;;;;;;;;;10.00;66.78;101025.19;5055203;28;20008;-64
2022/04/30 09:38:26;;;;;;;;;;;;;;;9.98;66.78;101029.41;4974899;28;20321;-65
2022/04/30 09:41:10;;;;;;;;;;;;;;;9.98;66.71;101025.13;4975622;28;19949;-65
2022/04/30 09:44:00;;;;;;;;;;;;;;;9.99;66.70;101026.91;5040857;28;20430;-64
2022/04/30 09:46:52;;;;;;;;;;;;;;;9.99;66.55;101023.41;5055354;28;20461;-65
2022/04/30 09:55:54;;;;;;;;;;;;;;;10.02;66.64;101020.94;5055846;28;19927;-65
2022/04/30 09:58:44;;;;;;;;;;;;;;;10.04;66.56;101022.72;5055284;28;19927;-65
2022/04/30 10:01:30;;;;;;;;;;;;;;;10.04;66.14;101017.56;5054500;28;19974;-65
2022/04/30 10:04:17;;;;;;;;;;;;;;;10.06;66.44;101013.31;5055698;28;19932;-65
2022/04/30 10:07:06;;;;;;;;;;;;;;;10.08;66.47;101012.50;5053899;28;20445;-65
2022/04/30 10:10:13;;;;;;;;;;;;;;;10.09;66.53;101012.56;5054550;28;19971;-65
2022/04/30 10:13:09;;;;;;;;;;;;;;;10.11;66.53;101003.13;5054134;28;19928;-65
2022/04/30 10:15:59;;;;;;;;;;;;;;;10.12;66.46;101001.41;5054600;28;20459;-65
2022/04/30 10:18:46;;;;;;;;;;;;;;;10.13;66.21;100996.25;5054275;28;19986;-65
2022/04/30 10:21:30;;;;;;;;;;;;;;;10.14;66.47;100999.75;5053912;28;19967;-65
2022/04/30 10:24:19;;;;;;;;;;;;;;;10.17;66.00;101002.44;5054981;28;19932;-65
2022/04/30 10:27:06;;;;;;;;;;;;;;;10.17;65.96;100997.28;5053508;28;19928;-65
2022/04/30 10:30:05;;;;;;;;;;;;;;;10.19;66.42;100987.84;5053505;28;19979;-65
2022/04/30 10:32:59;;;;;;;;;;;;;;;10.17;66.01;100986.91;5054263;28;20012;-64
2022/04/30 10:35:45;;;;;;;;;;;;;;;10.17;66.35;100990.38;5053751;28;20299;-65
2022/04/30 10:38:35;;;;;;;;;;;;;;;10.18;66.23;100997.31;5053571;28;20020;-65
2022/04/30 10:41:24;;;;;;;;;;;;;;;10.19;66.16;100983.53;5053861;28;19927;-65
2022/04/30 10:44:14;;;;;;;;;;;;;;;10.20;66.12;100984.38;5053622;28;20058;-66
2022/04/30 10:47:12;;;;;;;;;;;;;;;10.19;66.01;100978.34;5054263;28;20059;-65
2022/04/30 10:50:02;;;;;;;;;;;;;;;10.20;65.79;100984.38;5053506;28;19975;-65
2022/04/30 10:52:57;;;;;;;;;;;;;;;10.23;65.80;100973.28;5053855;28;19987;-66
2022/04/30 10:55:45;;;;;;;;;;;;;;;10.23;65.80;100979.31;5053283;28;20350;-65
2022/04/30 10:58:31;;;;;;;;;;;;;;;10.26;66.03;100973.38;5053686;28;19975;-65
2022/04/30 11:01:21;;;;;;;;;;;;;;;10.26;66.18;100971.66;5054135;28;19955;-66
2022/04/30 11:04:15;;;;;;;;;;;;;;;10.26;65.97;100966.47;5053316;28;19995;-65
2022/04/30 11:07:09;;;;;;;;;;;;;;;10.24;65.73;100956.91;5053195;28;20308;-65
2022/04/30 11:09:57;;;;;;;;;;;;;;;10.23;65.91;100949.94;5052627;28;21289;-65
2022/04/30 11:12:47;;;;;;;;;;;;;;;10.26;65.74;100944.88;5054123;28;19928;-65
2022/04/30 11:15:34;;;;;;;;;;;;;;;10.27;65.69;100950.09;5053284;28;19928;-65
2022/04/30 11:18:24;;;;;;;;;;;;;;;10.28;65.90;100938.91;5053693;28;19985;-66
2022/04/30 11:21:08;;;;;;;;;;;;;;;10.28;65.62;100940.59;5053264;28;19928;-66
2022/04/30 11:23:52;;;;;;;;;;;;;;;10.28;66.04;100936.31;5054101;28;19928;-65
2022/04/30 11:26:44;;;;;;;;;;;;;;;10.28;65.86;100940.59;5053133;28;19928;-66
2022/04/30 11:29:31;;;;;;;;;;;;;;;10.26;65.78;100937.97;5053162;28;20327;-66
2022/04/30 11:32:22;;;;;;;;;;;;;;;10.26;66.05;100940.56;5053265;28;19955;-65
2022/04/30 11:35:09;;;;;;;;;;;;;;;10.30;65.79;100933.75;5053490;28;19927;-66
2022/04/30 11:37:53;;;;;;;;;;;;;;;10.29;65.69;100926.81;5053066;28;20458;-66
2022/04/30 11:40:45;;;;;;;;;;;;;;;10.31;65.53;100925.16;5053360;28;19974;-65
2022/04/30 11:43:29;;;;;;;;;;;;;;;10.31;65.83;100922.56;5052747;28;19967;-66
2022/04/30 11:46:17;;;;;;;;;;;;;;;10.31;65.57;100920.88;5053807;28;19986;-66
2022/04/30 11:49:09;;;;;;;;;;;;;;;10.29;65.84;100911.25;5053114;28;19927;-66
2022/04/30 11:52:02;;;;;;;;;;;;;;;10.30;65.45;100910.44;5053241;28;19928;-65
2022/04/30 11:54:45;;;;;;;;;;;;;;;10.31;65.43;100918.28;5053082;28;20425;-66
2022/04/30 11:57:31;;;;;;;;;;;;;;;10.31;65.59;100900.13;5053580;28;19928;-66
2022/04/30 12:00:23;;;;;;;;;;;;;;;10.32;65.60;100909.66;5052505;28;19944;-66
2022/04/30 12:03:15;;;;;;;;;;;;;;;10.29;65.35;100896.63;5053609;28;19928;-66
2022/04/30 12:06:02;;;;;;;;;;;;;;;10.30;65.42;100895.78;5052747;28;20433;-66
2022/04/30 12:08:46;;;;;;;;;;;;;;;10.30;65.83;100898.38;5052796;28;19967;-65
2022/04/30 12:11:43;;;;;;;;;;;;;;;10.32;65.69;100893.22;5053078;28;19967;-65
2022/04/30 12:14:42;;;;;;;;;;;;;;;10.35;65.53;100890.72;5052787;28;19927;-65
2022/04/30 12:17:36;;;;;;;;;;;;;;;10.33;65.39;100882.94;5053137;28;19927;-66
2022/04/30 12:26:51;;;;;;;;;;;;;;;10.36;65.51;100874.34;5052966;28;19928;-66
2022/04/30 12:29:44;;;;;;;;;;;;;;;10.37;65.19;100873.53;5052270;28;20382;-65
2022/04/30 12:32:28;;;;;;;;;;;;;;;10.39;65.34;100865.81;5052473;28;20315;-65
2022/04/30 12:35:12;;;;;;;;;;;;;;;10.39;65.29;100865.81;5053869;28;19928;-65
2022/04/30 12:38:04;;;;;;;;;;;;;;;10.39;65.59;100865.81;5052547;28;19928;-66
2022/04/30 12:40:54;;;;;;;;;;;;;;;10.40;65.15;100865.88;5053053;28;19928;-65
2022/04/30 12:43:41;;;;;;;;;;;;;;;10.44;65.05;100856.47;5052462;28;19927;-65
2022/04/30 12:46:30;;;;;;;;;;;;;;;10.45;65.19;100864.28;5053009;28;20011;-66
2022/04/30 12:49:20;;;;;;;;;;;;;;;10.44;65.30;100856.47;5052346;28;20024;-66
2022/04/30 12:52:09;;;;;;;;;;;;;;;10.42;65.11;100853.84;5053068;28;20303;-65
2022/04/30 12:54:58;;;;;;;;;;;;;;;10.42;65.12;100853.84;5055988;28;19928;-66
2022/04/30 12:57:48;;;;;;;;;;;;;;;10.44;65.31;100851.31;5055957;28;19928;-66
2022/04/30 13:00:35;;;;;;;;;;;;;;;10.44;65.29;100841.78;5055921;28;19928;-66
2022/04/30 13:03:19;;;;;;;;;;;;;;;10.45;65.13;100837.50;5055099;28;19946;-65
2022/04/30 13:06:08;;;;;;;;;;;;;;;10.49;65.02;100841.97;5055316;28;20434;-65
2022/04/30 13:15:09;;;;;;;;;;;;;;;10.52;64.92;100839.44;5056131;28;20384;-65
2022/04/30 13:17:55;;;;;;;;;;;;;;;10.53;64.95;100835.13;5055357;28;19928;-65
2022/04/30 13:20:39;;;;;;;;;;;;;;;10.52;64.94;100836.84;5055805;28;20300;-65
2022/04/30 13:23:23;;;;;;;;;;;;;;;10.53;65.02;100830.81;5055756;28;19927;-66
2022/04/30 13:26:08;;;;;;;;;;;;;;;10.50;64.99;100836.81;5055617;28;19950;-65
2022/04/30 13:28:52;;;;;;;;;;;;;;;10.49;65.27;100835.03;5056034;28;19928;-65
2022/04/30 13:31:42;;;;;;;;;;;;;;;10.47;65.15;100828.06;5056053;28;20009;-65
2022/04/30 13:34:31;;;;;;;;;;;;;;;10.47;65.30;100828.06;5055443;28;20059;-65
2022/04/30 13:37:15;;;;;;;;;;;;;;;10.47;65.15;100831.53;5055081;28;20015;-65
2022/04/30 13:40:05;;;;;;;;;;;;;;;10.49;64.96;100826.41;5055276;28;19928;-66
2022/04/30 13:42:55;;;;;;;;;;;;;;;10.49;64.79;100824.69;5054730;28;20406;-65
2022/04/30 13:45:40;;;;;;;;;;;;;;;10.52;64.94;100818.69;5054787;28;19947;-65
2022/04/30 13:48:24;;;;;;;;;;;;;;;10.51;65.10;100822.13;5056052;28;19927;-66
2022/04/30 13:51:13;;;;;;;;;;;;;;;10.51;65.04;100829.88;5055415;28;20304;-65
2022/04/30 13:53:57;;;;;;;;;;;;;;;10.50;64.81;100822.97;5055718;28;19963;-66
2022/04/30 13:56:49;;;;;;;;;;;;;;;10.50;65.30;100820.38;5055039;28;19928;-65
2022/04/30 13:59:33;;;;;;;;;;;;;;;10.50;65.10;100810.88;5054552;28;19927;-66
2022/04/30 14:02:17;;;;;;;;;;;;;;;10.50;65.03;100813.47;5054962;28;20414;-65
2022/04/30 14:05:01;;;;;;;;;;;;;;;10.48;65.00;100816.88;5054606;28;20006;-65
2022/04/30 14:07:45;;;;;;;;;;;;;;;10.47;64.94;100803.03;5054386;28;20387;-65
2022/04/30 14:10:34;;;;;;;;;;;;;;;10.49;64.85;100800.50;5054986;28;20023;-65
2022/04/30 14:16:32;;;;;;;;;;;;;;;10.47;64.94;100800.44;5055009;28;19967;-65
2022/04/30 14:19:16;;;;;;;;;;;;;;;10.47;64.98;100800.44;5054546;28;19927;-65
2022/04/30 14:22:00;;;;;;;;;;;;;;;10.47;65.00;100791.78;5053630;28;19928;-66
2022/04/30 14:24:50;;;;;;;;;;;;;;;10.47;65.09;100789.19;5055440;28;19932;-66
2022/04/30 14:27:37;;;;;;;;;;;;;;;10.49;65.17;100792.72;5053895;28;19979;-66
2022/04/30 14:30:21;;;;;;;;;;;;;;;10.49;65.33;100792.72;5053785;28;20020;-65
2022/04/30 14:33:10;;;;;;;;;;;;;;;10.51;65.22;100791.00;5054910;28;19928;-65
2022/04/30 14:36:03;;;;;;;;;;;;;;;10.49;65.21;100792.72;5054118;28;19931;-65
2022/04/30 14:38:52;;;;;;;;;;;;;;;10.49;65.07;100780.63;5055049;28;20433;-65
2022/04/30 14:41:37;;;;;;;;;;;;;;;10.50;64.69;100784.09;5054264;28;19928;-66
2022/04/30 14:44:21;;;;;;;;;;;;;;;10.51;64.79;100778.06;5054187;28;19966;-65
2022/04/30 14:47:11;;;;;;;;;;;;;;;10.51;65.14;100772.88;5054520;28;19928;-65
2022/04/30 14:50:00;;;;;;;;;;;;;;;10.53;65.01;100778.13;5053736;28;19967;-65
2022/04/30 14:52:44;;;;;;;;;;;;;;;10.53;64.93;100778.97;5054331;28;19932;-65
2022/04/30 14:55:34;;;;;;;;;;;;;;;10.53;65.13;100772.94;5054479;28;19974;-66
2022/04/30 14:58:24;;;;;;;;;;;;;;;10.53;64.77;100770.34;5053652;28;19966;-66
2022/04/30 15:01:08;;;;;;;;;;;;;;;10.54;64.79;100769.50;5053672;28;20284;-66
2022/04/30 15:03:57;;;;;;;;;;;;;;;10.53;64.94;100766.03;5054365;28;19975;-67
2022/04/30 15:06:41;;;;;;;;;;;;;;;10.53;64.92;100767.75;5053095;28;19946;-66
2022/04/30 15:09:28;;;;;;;;;;;;;;;10.53;65.18;100762.56;5054411;28;19975;-66
2022/04/30 15:12:18;;;;;;;;;;;;;;;10.52;65.23;100764.25;5054241;28;19974;-66
2022/04/30 15:15:05;;;;;;;;;;;;;;;10.55;64.94;100763.50;5053134;28;20393;-66
2022/04/30 15:17:49;;;;;;;;;;;;;;;10.55;64.28;100760.91;5053116;28;20410;-66
2022/04/30 15:20:33;;;;;;;;;;;;;;;10.55;64.31;100758.31;5053592;28;19927;-65
2022/04/30 15:23:18;;;;;;;;;;;;;;;10.56;64.75;100758.34;5053832;28;19967;-65